sensor_id;sensor_type;location;lat;lon;timestamp;P1;durP1;ratioP1;P2;durP2;ratioP2
7961;SDS011;4026;43.652;24.906;2023-05-10T00:01:34;4.13;;;3.23;;
7961;SDS011;4026;43.652;24.906;2023-05-10T00:04:01;5.50;;;3.43;;
7961;SDS011;4026;43.652;24.906;2023-05-10T00:06:28;6.50;;;4.07;;
7961;SDS011;4026;43.652;24.906;2023-05-10T00:08:55;8.00;;;3.90;;
7961;SDS011;4026;43.652;24.906;2023-05-10T00:11:23;4.30;;;3.37;;
7961;SDS011;4026;43.652;24.906;2023-05-10T00:13:50;3.97;;;3.03;;
7961;SDS011;4026;43.652;24.906;2023-05-10T00:16:17;3.97;;;3.53;;
7961;SDS011;4026;43.652;24.906;2023-05-10T00:18:43;4.47;;;2.83;;
7961;SDS011;4026;43.652;24.906;2023-05-10T00:21:10;6.70;;;3.87;;
7961;SDS011;4026;43.652;24.906;2023-05-10T00:23:37;4.70;;;3.57;;
7961;SDS011;4026;43.652;24.906;2023-05-10T00:26:04;4.70;;;3.23;;
7961;SDS011;4026;43.652;24.906;2023-05-10T00:28:32;7.20;;;3.50;;
7961;SDS011;4026;43.652;24.906;2023-05-10T00:30:59;4.17;;;3.33;;
7961;SDS011;4026;43.652;24.906;2023-05-10T00:33:26;4.17;;;3.43;;
7961;SDS011;4026;43.652;24.906;2023-05-10T00:35:52;4.80;;;3.73;;
7961;SDS011;4026;43.652;24.906;2023-05-10T00:38:19;3.70;;;2.80;;
7961;SDS011;4026;43.652;24.906;2023-05-10T00:40:46;4.77;;;3.37;;
7961;SDS011;4026;43.652;24.906;2023-05-10T00:43:13;5.27;;;3.20;;
7961;SDS011;4026;43.652;24.906;2023-05-10T00:45:41;4.63;;;3.43;;
7961;SDS011;4026;43.652;24.906;2023-05-10T00:48:08;4.00;;;2.87;;
7961;SDS011;4026;43.652;24.906;2023-05-10T00:50:35;5.07;;;3.77;;
7961;SDS011;4026;43.652;24.906;2023-05-10T00:53:02;5.53;;;3.60;;
7961;SDS011;4026;43.652;24.906;2023-05-10T00:55:30;4.63;;;3.67;;
7961;SDS011;4026;43.652;24.906;2023-05-10T00:57:56;5.97;;;3.83;;
7961;SDS011;4026;43.652;24.906;2023-05-10T01:00:23;5.40;;;3.30;;
7961;SDS011;4026;43.652;24.906;2023-05-10T01:02:52;4.80;;;3.50;;
7961;SDS011;4026;43.652;24.906;2023-05-10T01:05:19;4.23;;;2.83;;
7961;SDS011;4026;43.652;24.906;2023-05-10T01:07:46;3.83;;;2.80;;
7961;SDS011;4026;43.652;24.906;2023-05-10T01:10:13;3.03;;;2.67;;
7961;SDS011;4026;43.652;24.906;2023-05-10T01:12:40;5.13;;;2.83;;
7961;SDS011;4026;43.652;24.906;2023-05-10T01:15:11;5.57;;;3.27;;
7961;SDS011;4026;43.652;24.906;2023-05-10T01:17:40;4.00;;;2.90;;
7961;SDS011;4026;43.652;24.906;2023-05-10T01:20:11;5.07;;;3.37;;
7961;SDS011;4026;43.652;24.906;2023-05-10T01:22:45;4.47;;;3.37;;
7961;SDS011;4026;43.652;24.906;2023-05-10T01:28:44;8.33;;;3.50;;
7961;SDS011;4026;43.652;24.906;2023-05-10T01:31:39;3.77;;;2.87;;
7961;SDS011;4026;43.652;24.906;2023-05-10T01:34:28;4.70;;;2.97;;
7961;SDS011;4026;43.652;24.906;2023-05-10T01:37:02;5.37;;;3.20;;
7961;SDS011;4026;43.652;24.906;2023-05-10T01:39:37;4.97;;;3.40;;
7961;SDS011;4026;43.652;24.906;2023-05-10T01:42:11;4.23;;;3.27;;
7961;SDS011;4026;43.652;24.906;2023-05-10T01:44:42;2.53;;;2.33;;
7961;SDS011;4026;43.652;24.906;2023-05-10T01:47:20;3.07;;;2.33;;
7961;SDS011;4026;43.652;24.906;2023-05-10T01:49:53;3.23;;;2.37;;
7961;SDS011;4026;43.652;24.906;2023-05-10T01:52:32;5.93;;;3.03;;
7961;SDS011;4026;43.652;24.906;2023-05-10T01:55:04;3.00;;;2.37;;
7961;SDS011;4026;43.652;24.906;2023-05-10T01:57:34;2.87;;;2.47;;
7961;SDS011;4026;43.652;24.906;2023-05-10T02:00:02;2.40;;;2.10;;
7961;SDS011;4026;43.652;24.906;2023-05-10T02:02:33;8.03;;;3.73;;
7961;SDS011;4026;43.652;24.906;2023-05-10T02:05:03;4.77;;;2.80;;
7961;SDS011;4026;43.652;24.906;2023-05-10T02:07:33;3.17;;;2.53;;
7961;SDS011;4026;43.652;24.906;2023-05-10T02:10:01;2.67;;;1.90;;
7961;SDS011;4026;43.652;24.906;2023-05-10T02:12:30;3.67;;;2.73;;
7961;SDS011;4026;43.652;24.906;2023-05-10T02:14:59;3.63;;;2.20;;
7961;SDS011;4026;43.652;24.906;2023-05-10T02:17:28;4.33;;;2.70;;
7961;SDS011;4026;43.652;24.906;2023-05-10T02:19:58;4.20;;;3.13;;
7961;SDS011;4026;43.652;24.906;2023-05-10T02:22:26;4.37;;;2.80;;
7961;SDS011;4026;43.652;24.906;2023-05-10T02:24:53;2.70;;;2.43;;
7961;SDS011;4026;43.652;24.906;2023-05-10T02:27:23;5.93;;;2.27;;
7961;SDS011;4026;43.652;24.906;2023-05-10T02:29:52;2.57;;;2.23;;
7961;SDS011;4026;43.652;24.906;2023-05-10T02:32:19;2.60;;;2.37;;
7961;SDS011;4026;43.652;24.906;2023-05-10T02:34:48;3.90;;;3.10;;
7961;SDS011;4026;43.652;24.906;2023-05-10T02:37:18;4.43;;;2.93;;
7961;SDS011;4026;43.652;24.906;2023-05-10T02:39:46;2.90;;;2.37;;
7961;SDS011;4026;43.652;24.906;2023-05-10T02:42:14;3.50;;;2.50;;
7961;SDS011;4026;43.652;24.906;2023-05-10T02:44:44;5.27;;;3.37;;
7961;SDS011;4026;43.652;24.906;2023-05-10T02:47:13;4.67;;;2.50;;
7961;SDS011;4026;43.652;24.906;2023-05-10T02:49:40;2.23;;;1.83;;
7961;SDS011;4026;43.652;24.906;2023-05-10T02:52:07;4.60;;;3.20;;
7961;SDS011;4026;43.652;24.906;2023-05-10T02:54:41;2.30;;;1.93;;
7961;SDS011;4026;43.652;24.906;2023-05-10T02:57:15;3.77;;;2.60;;
7961;SDS011;4026;43.652;24.906;2023-05-10T02:59:44;4.17;;;2.57;;
7961;SDS011;4026;43.652;24.906;2023-05-10T03:02:11;2.67;;;2.03;;
7961;SDS011;4026;43.652;24.906;2023-05-10T03:04:39;2.40;;;1.97;;
7961;SDS011;4026;43.652;24.906;2023-05-10T03:07:06;5.57;;;2.67;;
7961;SDS011;4026;43.652;24.906;2023-05-10T03:09:33;2.03;;;1.80;;
7961;SDS011;4026;43.652;24.906;2023-05-10T03:12:03;3.43;;;2.73;;
7961;SDS011;4026;43.652;24.906;2023-05-10T03:14:42;2.97;;;2.67;;
7961;SDS011;4026;43.652;24.906;2023-05-10T03:17:17;2.43;;;2.20;;
7961;SDS011;4026;43.652;24.906;2023-05-10T03:19:51;5.80;;;2.47;;
7961;SDS011;4026;43.652;24.906;2023-05-10T03:22:21;2.80;;;2.50;;
7961;SDS011;4026;43.652;24.906;2023-05-10T03:24:51;2.50;;;2.00;;
7961;SDS011;4026;43.652;24.906;2023-05-10T03:27:23;3.80;;;2.50;;
7961;SDS011;4026;43.652;24.906;2023-05-10T03:29:52;2.90;;;2.23;;
7961;SDS011;4026;43.652;24.906;2023-05-10T03:32:21;2.03;;;1.70;;
7961;SDS011;4026;43.652;24.906;2023-05-10T03:34:48;2.73;;;2.13;;
7961;SDS011;4026;43.652;24.906;2023-05-10T03:37:15;3.57;;;2.50;;
7961;SDS011;4026;43.652;24.906;2023-05-10T03:39:42;4.77;;;2.90;;
7961;SDS011;4026;43.652;24.906;2023-05-10T03:42:09;2.87;;;2.60;;
7961;SDS011;4026;43.652;24.906;2023-05-10T03:44:38;2.63;;;2.10;;
7961;SDS011;4026;43.652;24.906;2023-05-10T03:47:05;2.53;;;2.30;;
7961;SDS011;4026;43.652;24.906;2023-05-10T03:49:32;4.13;;;2.90;;
7961;SDS011;4026;43.652;24.906;2023-05-10T03:51:58;4.30;;;3.17;;
7961;SDS011;4026;43.652;24.906;2023-05-10T03:54:25;3.03;;;2.50;;
7961;SDS011;4026;43.652;24.906;2023-05-10T03:56:52;4.00;;;3.20;;
7961;SDS011;4026;43.652;24.906;2023-05-10T03:59:19;5.20;;;3.37;;
7961;SDS011;4026;43.652;24.906;2023-05-10T04:01:47;3.40;;;2.17;;
7961;SDS011;4026;43.652;24.906;2023-05-10T04:04:14;3.80;;;3.03;;
7961;SDS011;4026;43.652;24.906;2023-05-10T04:06:43;5.17;;;3.33;;
7961;SDS011;4026;43.652;24.906;2023-05-10T04:09:10;4.03;;;2.87;;
7961;SDS011;4026;43.652;24.906;2023-05-10T04:11:37;4.30;;;3.33;;
7961;SDS011;4026;43.652;24.906;2023-05-10T04:14:03;3.50;;;2.80;;
7961;SDS011;4026;43.652;24.906;2023-05-10T04:16:30;4.33;;;3.63;;
7961;SDS011;4026;43.652;24.906;2023-05-10T04:18:58;5.13;;;3.93;;
7961;SDS011;4026;43.652;24.906;2023-05-10T04:21:25;7.07;;;3.40;;
7961;SDS011;4026;43.652;24.906;2023-05-10T04:23:52;4.33;;;3.43;;
7961;SDS011;4026;43.652;24.906;2023-05-10T04:26:19;3.43;;;3.13;;
7961;SDS011;4026;43.652;24.906;2023-05-10T04:28:47;5.40;;;2.97;;
7961;SDS011;4026;43.652;24.906;2023-05-10T04:31:13;3.27;;;2.40;;
7961;SDS011;4026;43.652;24.906;2023-05-10T04:33:40;3.90;;;2.60;;
7961;SDS011;4026;43.652;24.906;2023-05-10T04:36:09;6.07;;;3.77;;
7961;SDS011;4026;43.652;24.906;2023-05-10T04:38:35;4.10;;;3.23;;
7961;SDS011;4026;43.652;24.906;2023-05-10T04:41:05;3.77;;;3.10;;
7961;SDS011;4026;43.652;24.906;2023-05-10T04:43:32;3.87;;;2.93;;
7961;SDS011;4026;43.652;24.906;2023-05-10T04:45:59;4.70;;;2.83;;
7961;SDS011;4026;43.652;24.906;2023-05-10T04:48:26;5.43;;;3.83;;
7961;SDS011;4026;43.652;24.906;2023-05-10T04:50:53;3.97;;;3.20;;
7961;SDS011;4026;43.652;24.906;2023-05-10T04:53:21;4.10;;;3.10;;
7961;SDS011;4026;43.652;24.906;2023-05-10T04:55:48;6.33;;;3.90;;
7961;SDS011;4026;43.652;24.906;2023-05-10T04:58:15;4.17;;;2.90;;
7961;SDS011;4026;43.652;24.906;2023-05-10T05:00:42;5.67;;;4.03;;
7961;SDS011;4026;43.652;24.906;2023-05-10T05:03:09;5.50;;;3.47;;
7961;SDS011;4026;43.652;24.906;2023-05-10T05:05:36;8.87;;;3.60;;
7961;SDS011;4026;43.652;24.906;2023-05-10T05:08:03;4.73;;;3.23;;
7961;SDS011;4026;43.652;24.906;2023-05-10T05:10:31;6.23;;;3.80;;
7961;SDS011;4026;43.652;24.906;2023-05-10T05:12:58;7.27;;;4.20;;
7961;SDS011;4026;43.652;24.906;2023-05-10T05:15:25;4.90;;;3.07;;
7961;SDS011;4026;43.652;24.906;2023-05-10T05:17:51;5.27;;;3.23;;
7961;SDS011;4026;43.652;24.906;2023-05-10T05:20:18;6.93;;;4.07;;
7961;SDS011;4026;43.652;24.906;2023-05-10T05:22:45;6.73;;;3.77;;
7961;SDS011;4026;43.652;24.906;2023-05-10T05:25:12;3.90;;;2.73;;
7961;SDS011;4026;43.652;24.906;2023-05-10T05:27:41;6.53;;;3.40;;
7961;SDS011;4026;43.652;24.906;2023-05-10T05:30:08;3.27;;;2.50;;
7961;SDS011;4026;43.652;24.906;2023-05-10T05:32:36;3.67;;;3.00;;
7961;SDS011;4026;43.652;24.906;2023-05-10T05:35:03;7.27;;;4.70;;
7961;SDS011;4026;43.652;24.906;2023-05-10T05:37:30;6.97;;;4.47;;
7961;SDS011;4026;43.652;24.906;2023-05-10T05:39:57;5.93;;;3.73;;
7961;SDS011;4026;43.652;24.906;2023-05-10T05:42:26;5.13;;;3.50;;
7961;SDS011;4026;43.652;24.906;2023-05-10T05:44:54;5.10;;;3.27;;
7961;SDS011;4026;43.652;24.906;2023-05-10T05:47:21;5.10;;;3.23;;
7961;SDS011;4026;43.652;24.906;2023-05-10T05:49:48;4.63;;;2.97;;
7961;SDS011;4026;43.652;24.906;2023-05-10T05:52:14;5.20;;;2.90;;
7961;SDS011;4026;43.652;24.906;2023-05-10T05:54:41;5.70;;;3.73;;
7961;SDS011;4026;43.652;24.906;2023-05-10T05:57:10;4.73;;;3.40;;
7961;SDS011;4026;43.652;24.906;2023-05-10T05:59:36;4.63;;;3.20;;
7961;SDS011;4026;43.652;24.906;2023-05-10T06:02:08;2.73;;;2.33;;
7961;SDS011;4026;43.652;24.906;2023-05-10T06:04:35;4.03;;;2.60;;
7961;SDS011;4026;43.652;24.906;2023-05-10T06:07:02;5.50;;;2.90;;
7961;SDS011;4026;43.652;24.906;2023-05-10T06:09:28;2.73;;;2.07;;
7961;SDS011;4026;43.652;24.906;2023-05-10T06:11:55;3.43;;;2.20;;
7961;SDS011;4026;43.652;24.906;2023-05-10T06:14:22;3.73;;;2.63;;
7961;SDS011;4026;43.652;24.906;2023-05-10T06:16:49;3.60;;;2.47;;
7961;SDS011;4026;43.652;24.906;2023-05-10T06:19:17;5.10;;;2.37;;
7961;SDS011;4026;43.652;24.906;2023-05-10T06:21:44;4.33;;;2.50;;
7961;SDS011;4026;43.652;24.906;2023-05-10T06:24:11;4.43;;;2.70;;
7961;SDS011;4026;43.652;24.906;2023-05-10T06:26:37;4.33;;;2.30;;
7961;SDS011;4026;43.652;24.906;2023-05-10T06:29:04;4.40;;;2.10;;
7961;SDS011;4026;43.652;24.906;2023-05-10T06:31:31;4.07;;;2.30;;
7961;SDS011;4026;43.652;24.906;2023-05-10T06:33:58;3.93;;;2.20;;
7961;SDS011;4026;43.652;24.906;2023-05-10T06:36:26;2.93;;;2.13;;
7961;SDS011;4026;43.652;24.906;2023-05-10T06:38:53;4.73;;;2.80;;
7961;SDS011;4026;43.652;24.906;2023-05-10T06:41:20;2.40;;;2.03;;
7961;SDS011;4026;43.652;24.906;2023-05-10T06:43:46;3.67;;;2.13;;
7961;SDS011;4026;43.652;24.906;2023-05-10T06:46:13;3.77;;;2.33;;
7961;SDS011;4026;43.652;24.906;2023-05-10T06:48:40;3.23;;;2.27;;
7961;SDS011;4026;43.652;24.906;2023-05-10T06:51:07;4.47;;;2.03;;
7961;SDS011;4026;43.652;24.906;2023-05-10T06:53:35;3.43;;;2.40;;
7961;SDS011;4026;43.652;24.906;2023-05-10T06:56:02;4.03;;;2.50;;
7961;SDS011;4026;43.652;24.906;2023-05-10T06:58:29;2.93;;;2.37;;
7961;SDS011;4026;43.652;24.906;2023-05-10T07:01:01;2.83;;;2.13;;
7961;SDS011;4026;43.652;24.906;2023-05-10T07:03:28;2.43;;;1.90;;
7961;SDS011;4026;43.652;24.906;2023-05-10T07:05:59;7.30;;;2.73;;
7961;SDS011;4026;43.652;24.906;2023-05-10T07:08:28;1.73;;;1.27;;
7961;SDS011;4026;43.652;24.906;2023-05-10T07:11:00;2.67;;;1.90;;
7961;SDS011;4026;43.652;24.906;2023-05-10T07:13:28;2.53;;;1.93;;
7961;SDS011;4026;43.652;24.906;2023-05-10T07:15:55;4.73;;;1.70;;
7961;SDS011;4026;43.652;24.906;2023-05-10T07:18:22;4.77;;;2.40;;
7961;SDS011;4026;43.652;24.906;2023-05-10T07:20:49;5.87;;;1.90;;
7961;SDS011;4026;43.652;24.906;2023-05-10T07:23:15;3.10;;;1.93;;
7961;SDS011;4026;43.652;24.906;2023-05-10T07:25:44;3.57;;;2.20;;
7961;SDS011;4026;43.652;24.906;2023-05-10T07:28:13;2.70;;;1.70;;
7961;SDS011;4026;43.652;24.906;2023-05-10T07:30:39;2.07;;;1.57;;
7961;SDS011;4026;43.652;24.906;2023-05-10T07:33:06;2.40;;;1.67;;
7961;SDS011;4026;43.652;24.906;2023-05-10T07:35:34;4.60;;;1.60;;
7961;SDS011;4026;43.652;24.906;2023-05-10T07:38:01;2.30;;;1.77;;
7961;SDS011;4026;43.652;24.906;2023-05-10T07:40:28;2.77;;;1.67;;
7961;SDS011;4026;43.652;24.906;2023-05-10T07:42:55;4.60;;;2.00;;
7961;SDS011;4026;43.652;24.906;2023-05-10T07:45:23;3.97;;;1.60;;
7961;SDS011;4026;43.652;24.906;2023-05-10T07:47:50;2.27;;;1.67;;
7961;SDS011;4026;43.652;24.906;2023-05-10T07:50:17;2.47;;;1.97;;
7961;SDS011;4026;43.652;24.906;2023-05-10T07:52:44;2.87;;;1.83;;
7961;SDS011;4026;43.652;24.906;2023-05-10T07:55:11;2.07;;;1.67;;
7961;SDS011;4026;43.652;24.906;2023-05-10T07:57:38;3.20;;;1.70;;
7961;SDS011;4026;43.652;24.906;2023-05-10T08:00:05;3.23;;;2.03;;
7961;SDS011;4026;43.652;24.906;2023-05-10T08:02:36;2.27;;;1.63;;
7961;SDS011;4026;43.652;24.906;2023-05-10T08:05:03;2.80;;;2.10;;
7961;SDS011;4026;43.652;24.906;2023-05-10T08:07:31;2.43;;;1.77;;
7961;SDS011;4026;43.652;24.906;2023-05-10T08:09:58;2.93;;;1.97;;
7961;SDS011;4026;43.652;24.906;2023-05-10T08:12:25;1.40;;;1.30;;
7961;SDS011;4026;43.652;24.906;2023-05-10T08:14:52;1.70;;;1.43;;
7961;SDS011;4026;43.652;24.906;2023-05-10T08:17:19;1.93;;;1.57;;
7961;SDS011;4026;43.652;24.906;2023-05-10T08:19:47;2.27;;;1.53;;
7961;SDS011;4026;43.652;24.906;2023-05-10T08:22:14;2.33;;;1.70;;
7961;SDS011;4026;43.652;24.906;2023-05-10T08:24:40;2.33;;;1.80;;
7961;SDS011;4026;43.652;24.906;2023-05-10T08:27:07;1.83;;;1.43;;
7961;SDS011;4026;43.652;24.906;2023-05-10T08:29:34;1.63;;;1.40;;
7961;SDS011;4026;43.652;24.906;2023-05-10T08:32:01;1.50;;;1.30;;
7961;SDS011;4026;43.652;24.906;2023-05-10T08:34:28;2.03;;;1.43;;
7961;SDS011;4026;43.652;24.906;2023-05-10T08:36:57;2.00;;;1.23;;
7961;SDS011;4026;43.652;24.906;2023-05-10T08:39:24;1.83;;;1.27;;
7961;SDS011;4026;43.652;24.906;2023-05-10T08:41:51;1.70;;;1.13;;
7961;SDS011;4026;43.652;24.906;2023-05-10T08:44:25;1.93;;;1.60;;
7961;SDS011;4026;43.652;24.906;2023-05-10T08:46:52;1.47;;;1.37;;
7961;SDS011;4026;43.652;24.906;2023-05-10T08:49:21;1.90;;;1.40;;
7961;SDS011;4026;43.652;24.906;2023-05-10T08:51:50;3.33;;;1.60;;
7961;SDS011;4026;43.652;24.906;2023-05-10T08:54:19;2.00;;;1.60;;
7961;SDS011;4026;43.652;24.906;2023-05-10T08:56:48;1.50;;;1.40;;
7961;SDS011;4026;43.652;24.906;2023-05-10T08:59:15;1.33;;;1.20;;
7961;SDS011;4026;43.652;24.906;2023-05-10T09:01:42;2.43;;;1.50;;
7961;SDS011;4026;43.652;24.906;2023-05-10T09:04:10;1.53;;;1.30;;
7961;SDS011;4026;43.652;24.906;2023-05-10T09:06:39;1.40;;;1.30;;
7961;SDS011;4026;43.652;24.906;2023-05-10T09:09:06;2.00;;;1.27;;
7961;SDS011;4026;43.652;24.906;2023-05-10T09:11:34;1.63;;;1.30;;
7961;SDS011;4026;43.652;24.906;2023-05-10T09:14:01;2.20;;;1.53;;
7961;SDS011;4026;43.652;24.906;2023-05-10T09:16:28;1.63;;;1.40;;
7961;SDS011;4026;43.652;24.906;2023-05-10T09:18:55;4.23;;;1.40;;
7961;SDS011;4026;43.652;24.906;2023-05-10T09:21:24;3.20;;;1.50;;
7961;SDS011;4026;43.652;24.906;2023-05-10T09:23:51;1.87;;;1.57;;
7961;SDS011;4026;43.652;24.906;2023-05-10T09:26:21;1.63;;;1.30;;
7961;SDS011;4026;43.652;24.906;2023-05-10T09:28:54;1.80;;;1.50;;
7961;SDS011;4026;43.652;24.906;2023-05-10T09:31:21;1.37;;;1.20;;
7961;SDS011;4026;43.652;24.906;2023-05-10T09:33:49;1.83;;;1.40;;
7961;SDS011;4026;43.652;24.906;2023-05-10T09:36:16;1.53;;;1.40;;
7961;SDS011;4026;43.652;24.906;2023-05-10T09:38:46;2.63;;;1.57;;
7961;SDS011;4026;43.652;24.906;2023-05-10T09:41:17;2.13;;;1.53;;
7961;SDS011;4026;43.652;24.906;2023-05-10T09:43:45;1.73;;;1.27;;
7961;SDS011;4026;43.652;24.906;2023-05-10T09:46:13;1.73;;;1.40;;
7961;SDS011;4026;43.652;24.906;2023-05-10T09:48:41;2.50;;;1.57;;
7961;SDS011;4026;43.652;24.906;2023-05-10T09:51:10;1.17;;;1.00;;
7961;SDS011;4026;43.652;24.906;2023-05-10T09:53:36;1.23;;;1.13;;
7961;SDS011;4026;43.652;24.906;2023-05-10T09:56:03;1.50;;;1.30;;
7961;SDS011;4026;43.652;24.906;2023-05-10T09:58:30;1.93;;;1.70;;
7961;SDS011;4026;43.652;24.906;2023-05-10T10:00:57;1.47;;;1.10;;
7961;SDS011;4026;43.652;24.906;2023-05-10T10:03:25;2.00;;;1.50;;
7961;SDS011;4026;43.652;24.906;2023-05-10T10:05:54;1.40;;;1.30;;
7961;SDS011;4026;43.652;24.906;2023-05-10T10:08:21;1.33;;;1.20;;
7961;SDS011;4026;43.652;24.906;2023-05-10T10:10:48;1.30;;;1.00;;
7961;SDS011;4026;43.652;24.906;2023-05-10T10:13:15;2.03;;;1.10;;
7961;SDS011;4026;43.652;24.906;2023-05-10T10:15:42;1.57;;;1.30;;
7961;SDS011;4026;43.652;24.906;2023-05-10T10:18:12;3.13;;;1.47;;
7961;SDS011;4026;43.652;24.906;2023-05-10T10:20:41;1.67;;;1.23;;
7961;SDS011;4026;43.652;24.906;2023-05-10T10:23:08;1.77;;;1.27;;
7961;SDS011;4026;43.652;24.906;2023-05-10T10:25:35;2.27;;;1.40;;
7961;SDS011;4026;43.652;24.906;2023-05-10T10:28:10;1.53;;;1.40;;
7961;SDS011;4026;43.652;24.906;2023-05-10T10:30:49;1.80;;;1.50;;
7961;SDS011;4026;43.652;24.906;2023-05-10T10:36:18;1.77;;;1.30;;
7961;SDS011;4026;43.652;24.906;2023-05-10T10:41:36;2.13;;;1.57;;
7961;SDS011;4026;43.652;24.906;2023-05-10T10:47:22;2.97;;;1.20;;
7961;SDS011;4026;43.652;24.906;2023-05-10T10:50:01;1.40;;;1.20;;
7961;SDS011;4026;43.652;24.906;2023-05-10T10:52:32;2.23;;;1.17;;
7961;SDS011;4026;43.652;24.906;2023-05-10T10:55:00;2.40;;;1.40;;
7961;SDS011;4026;43.652;24.906;2023-05-10T10:57:30;2.93;;;1.10;;
7961;SDS011;4026;43.652;24.906;2023-05-10T11:00:20;2.10;;;1.50;;
7961;SDS011;4026;43.652;24.906;2023-05-10T11:02:49;1.90;;;1.50;;
7961;SDS011;4026;43.652;24.906;2023-05-10T11:08:09;2.77;;;1.53;;
7961;SDS011;4026;43.652;24.906;2023-05-10T11:10:37;1.40;;;1.27;;
7961;SDS011;4026;43.652;24.906;2023-05-10T11:13:05;2.73;;;1.47;;
7961;SDS011;4026;43.652;24.906;2023-05-10T11:15:35;1.63;;;1.37;;
7961;SDS011;4026;43.652;24.906;2023-05-10T11:20:49;2.07;;;1.43;;
7961;SDS011;4026;43.652;24.906;2023-05-10T11:23:18;1.60;;;1.17;;
7961;SDS011;4026;43.652;24.906;2023-05-10T11:25:46;1.60;;;1.30;;
7961;SDS011;4026;43.652;24.906;2023-05-10T11:28:16;1.40;;;1.17;;
7961;SDS011;4026;43.652;24.906;2023-05-10T11:30:43;1.83;;;1.40;;
7961;SDS011;4026;43.652;24.906;2023-05-10T11:33:14;1.80;;;1.37;;
7961;SDS011;4026;43.652;24.906;2023-05-10T11:35:42;1.43;;;1.27;;
7961;SDS011;4026;43.652;24.906;2023-05-10T11:38:10;1.50;;;1.40;;
7961;SDS011;4026;43.652;24.906;2023-05-10T11:40:39;1.60;;;1.40;;
7961;SDS011;4026;43.652;24.906;2023-05-10T11:43:08;2.73;;;1.30;;
7961;SDS011;4026;43.652;24.906;2023-05-10T11:45:36;1.10;;;0.93;;
7961;SDS011;4026;43.652;24.906;2023-05-10T11:48:03;2.77;;;1.50;;
7961;SDS011;4026;43.652;24.906;2023-05-10T11:50:30;2.43;;;1.50;;
7961;SDS011;4026;43.652;24.906;2023-05-10T11:52:57;1.30;;;1.20;;
7961;SDS011;4026;43.652;24.906;2023-05-10T11:55:24;3.67;;;1.20;;
7961;SDS011;4026;43.652;24.906;2023-05-10T11:57:53;1.30;;;1.20;;
7961;SDS011;4026;43.652;24.906;2023-05-10T12:00:20;2.20;;;1.33;;
7961;SDS011;4026;43.652;24.906;2023-05-10T12:02:48;1.83;;;1.50;;
7961;SDS011;4026;43.652;24.906;2023-05-10T12:05:15;1.57;;;1.47;;
7961;SDS011;4026;43.652;24.906;2023-05-10T12:07:42;1.47;;;1.30;;
7961;SDS011;4026;43.652;24.906;2023-05-10T12:10:09;1.67;;;1.40;;
7961;SDS011;4026;43.652;24.906;2023-05-10T12:12:39;1.33;;;1.07;;
7961;SDS011;4026;43.652;24.906;2023-05-10T12:15:12;1.90;;;1.60;;
7961;SDS011;4026;43.652;24.906;2023-05-10T12:17:44;3.30;;;1.30;;
7961;SDS011;4026;43.652;24.906;2023-05-10T12:20:15;3.80;;;1.43;;
7961;SDS011;4026;43.652;24.906;2023-05-10T12:22:44;2.03;;;1.50;;
7961;SDS011;4026;43.652;24.906;2023-05-10T12:25:15;1.33;;;1.20;;
7961;SDS011;4026;43.652;24.906;2023-05-10T12:27:47;1.90;;;1.40;;
7961;SDS011;4026;43.652;24.906;2023-05-10T12:30:20;1.63;;;1.27;;
7961;SDS011;4026;43.652;24.906;2023-05-10T12:32:47;1.87;;;1.50;;
7961;SDS011;4026;43.652;24.906;2023-05-10T12:35:15;2.63;;;1.37;;
7961;SDS011;4026;43.652;24.906;2023-05-10T12:37:42;1.20;;;1.10;;
7961;SDS011;4026;43.652;24.906;2023-05-10T12:40:10;2.17;;;1.63;;
7961;SDS011;4026;43.652;24.906;2023-05-10T12:42:38;1.70;;;1.30;;
7961;SDS011;4026;43.652;24.906;2023-05-10T12:45:05;1.60;;;1.40;;
7961;SDS011;4026;43.652;24.906;2023-05-10T12:47:35;1.23;;;1.13;;
7961;SDS011;4026;43.652;24.906;2023-05-10T12:50:02;3.77;;;1.30;;
7961;SDS011;4026;43.652;24.906;2023-05-10T12:52:29;1.50;;;1.20;;
7961;SDS011;4026;43.652;24.906;2023-05-10T12:54:58;2.73;;;1.37;;
7961;SDS011;4026;43.652;24.906;2023-05-10T12:57:25;2.43;;;1.10;;
7961;SDS011;4026;43.652;24.906;2023-05-10T12:59:52;2.33;;;1.40;;
7961;SDS011;4026;43.652;24.906;2023-05-10T13:02:19;1.63;;;1.40;;
7961;SDS011;4026;43.652;24.906;2023-05-10T13:04:47;1.20;;;1.10;;
7961;SDS011;4026;43.652;24.906;2023-05-10T13:07:14;1.50;;;1.20;;
7961;SDS011;4026;43.652;24.906;2023-05-10T13:09:41;2.20;;;1.20;;
7961;SDS011;4026;43.652;24.906;2023-05-10T13:12:08;2.10;;;1.30;;
7961;SDS011;4026;43.652;24.906;2023-05-10T13:14:35;1.33;;;1.13;;
7961;SDS011;4026;43.652;24.906;2023-05-10T13:17:02;1.10;;;1.00;;
7961;SDS011;4026;43.652;24.906;2023-05-10T13:19:29;1.17;;;1.00;;
7961;SDS011;4026;43.652;24.906;2023-05-10T13:21:57;6.00;;;1.30;;
7961;SDS011;4026;43.652;24.906;2023-05-10T13:24:24;1.17;;;1.07;;
7961;SDS011;4026;43.652;24.906;2023-05-10T13:26:50;3.00;;;1.50;;
7961;SDS011;4026;43.652;24.906;2023-05-10T13:29:17;2.30;;;1.43;;
7961;SDS011;4026;43.652;24.906;2023-05-10T13:31:46;2.40;;;1.50;;
7961;SDS011;4026;43.652;24.906;2023-05-10T13:34:12;2.50;;;1.30;;
7961;SDS011;4026;43.652;24.906;2023-05-10T13:36:39;1.67;;;1.30;;
7961;SDS011;4026;43.652;24.906;2023-05-10T13:39:07;2.53;;;1.30;;
7961;SDS011;4026;43.652;24.906;2023-05-10T13:41:34;1.40;;;1.30;;
7961;SDS011;4026;43.652;24.906;2023-05-10T13:44:01;1.90;;;1.30;;
7961;SDS011;4026;43.652;24.906;2023-05-10T13:46:28;2.03;;;1.20;;
7961;SDS011;4026;43.652;24.906;2023-05-10T13:48:55;1.60;;;1.30;;
7961;SDS011;4026;43.652;24.906;2023-05-10T13:51:23;1.27;;;1.00;;
7961;SDS011;4026;43.652;24.906;2023-05-10T13:53:49;1.43;;;1.23;;
7961;SDS011;4026;43.652;24.906;2023-05-10T13:56:18;1.87;;;1.30;;
7961;SDS011;4026;43.652;24.906;2023-05-10T13:58:45;1.37;;;1.00;;
7961;SDS011;4026;43.652;24.906;2023-05-10T14:01:12;1.33;;;1.20;;
7961;SDS011;4026;43.652;24.906;2023-05-10T14:03:39;1.50;;;1.40;;
7961;SDS011;4026;43.652;24.906;2023-05-10T14:06:06;1.80;;;1.20;;
7961;SDS011;4026;43.652;24.906;2023-05-10T14:08:33;1.57;;;1.20;;
7961;SDS011;4026;43.652;24.906;2023-05-10T14:11:00;1.83;;;1.27;;
7961;SDS011;4026;43.652;24.906;2023-05-10T14:13:29;1.30;;;1.10;;
7961;SDS011;4026;43.652;24.906;2023-05-10T14:15:56;1.60;;;1.33;;
7961;SDS011;4026;43.652;24.906;2023-05-10T14:18:23;2.00;;;1.40;;
7961;SDS011;4026;43.652;24.906;2023-05-10T14:20:50;1.63;;;1.20;;
7961;SDS011;4026;43.652;24.906;2023-05-10T14:23:17;1.77;;;1.13;;
7961;SDS011;4026;43.652;24.906;2023-05-10T14:25:48;1.10;;;1.00;;
7961;SDS011;4026;43.652;24.906;2023-05-10T14:28:15;1.37;;;1.10;;
7961;SDS011;4026;43.652;24.906;2023-05-10T14:30:44;1.50;;;1.30;;
7961;SDS011;4026;43.652;24.906;2023-05-10T14:33:11;1.60;;;1.20;;
7961;SDS011;4026;43.652;24.906;2023-05-10T14:35:38;1.93;;;1.20;;
7961;SDS011;4026;43.652;24.906;2023-05-10T14:38:05;1.53;;;1.17;;
7961;SDS011;4026;43.652;24.906;2023-05-10T14:40:32;3.40;;;1.50;;
7961;SDS011;4026;43.652;24.906;2023-05-10T14:42:59;3.13;;;1.90;;
7961;SDS011;4026;43.652;24.906;2023-05-10T14:45:26;2.30;;;1.67;;
7961;SDS011;4026;43.652;24.906;2023-05-10T14:47:54;1.27;;;1.10;;
7961;SDS011;4026;43.652;24.906;2023-05-10T14:50:21;1.87;;;1.30;;
7961;SDS011;4026;43.652;24.906;2023-05-10T14:52:48;1.43;;;1.13;;
7961;SDS011;4026;43.652;24.906;2023-05-10T14:55:15;1.33;;;1.23;;
7961;SDS011;4026;43.652;24.906;2023-05-10T14:57:42;2.17;;;1.40;;
7961;SDS011;4026;43.652;24.906;2023-05-10T15:00:12;2.20;;;1.60;;
7961;SDS011;4026;43.652;24.906;2023-05-10T15:02:40;2.20;;;1.57;;
7961;SDS011;4026;43.652;24.906;2023-05-10T15:05:08;1.57;;;1.23;;
7961;SDS011;4026;43.652;24.906;2023-05-10T15:07:35;1.87;;;1.40;;
7961;SDS011;4026;43.652;24.906;2023-05-10T15:10:02;1.20;;;1.10;;
7961;SDS011;4026;43.652;24.906;2023-05-10T15:12:29;2.13;;;1.20;;
7961;SDS011;4026;43.652;24.906;2023-05-10T15:14:56;2.17;;;1.40;;
7961;SDS011;4026;43.652;24.906;2023-05-10T15:17:23;2.03;;;1.60;;
7961;SDS011;4026;43.652;24.906;2023-05-10T15:19:50;2.13;;;1.00;;
7961;SDS011;4026;43.652;24.906;2023-05-10T15:22:18;1.90;;;1.40;;
7961;SDS011;4026;43.652;24.906;2023-05-10T15:24:46;2.20;;;1.70;;